sensor_id;sensor_type;location;lat;lon;timestamp;P1;durP1;ratioP1;P2;durP2;ratioP2
3337;SDS011;1682;49.286;10.788;2023-04-08T00:02:22;11.80;;;9.10;;
3337;SDS011;1682;49.286;10.788;2023-04-08T00:04:50;10.80;;;8.97;;
3337;SDS011;1682;49.286;10.788;2023-04-08T00:07:18;11.63;;;8.80;;
3337;SDS011;1682;49.286;10.788;2023-04-08T00:09:45;10.80;;;7.93;;
3337;SDS011;1682;49.286;10.788;2023-04-08T00:12:13;14.63;;;9.00;;
3337;SDS011;1682;49.286;10.788;2023-04-08T00:14:40;9.97;;;8.90;;
3337;SDS011;1682;49.286;10.788;2023-04-08T00:17:07;10.87;;;9.40;;
3337;SDS011;1682;49.286;10.788;2023-04-08T00:19:34;14.43;;;9.77;;
3337;SDS011;1682;49.286;10.788;2023-04-08T00:22:01;15.30;;;10.00;;
3337;SDS011;1682;49.286;10.788;2023-04-08T00:24:30;10.23;;;7.63;;
3337;SDS011;1682;49.286;10.788;2023-04-08T00:26:57;10.50;;;8.60;;
3337;SDS011;1682;49.286;10.788;2023-04-08T00:29:24;12.53;;;8.80;;
3337;SDS011;1682;49.286;10.788;2023-04-08T00:31:52;12.13;;;9.67;;
3337;SDS011;1682;49.286;10.788;2023-04-08T00:34:19;11.03;;;9.57;;
3337;SDS011;1682;49.286;10.788;2023-04-08T00:36:46;14.13;;;9.30;;
3337;SDS011;1682;49.286;10.788;2023-04-08T00:39:14;11.30;;;9.10;;
3337;SDS011;1682;49.286;10.788;2023-04-08T00:41:42;17.23;;;9.13;;
3337;SDS011;1682;49.286;10.788;2023-04-08T00:44:09;9.87;;;8.67;;
3337;SDS011;1682;49.286;10.788;2023-04-08T00:46:37;16.83;;;8.70;;
3337;SDS011;1682;49.286;10.788;2023-04-08T00:49:05;15.63;;;9.47;;
3337;SDS011;1682;49.286;10.788;2023-04-08T00:51:33;9.87;;;8.47;;
3337;SDS011;1682;49.286;10.788;2023-04-08T00:54:01;16.53;;;10.40;;
3337;SDS011;1682;49.286;10.788;2023-04-08T00:56:28;10.60;;;8.90;;
3337;SDS011;1682;49.286;10.788;2023-04-08T00:58:57;10.63;;;9.30;;
3337;SDS011;1682;49.286;10.788;2023-04-08T01:01:27;11.80;;;9.60;;
3337;SDS011;1682;49.286;10.788;2023-04-08T01:04:01;12.40;;;9.70;;
3337;SDS011;1682;49.286;10.788;2023-04-08T01:06:34;12.07;;;9.33;;
3337;SDS011;1682;49.286;10.788;2023-04-08T01:09:06;13.80;;;9.00;;
3337;SDS011;1682;49.286;10.788;2023-04-08T01:11:34;15.97;;;11.00;;
3337;SDS011;1682;49.286;10.788;2023-04-08T01:14:03;10.23;;;8.17;;
3337;SDS011;1682;49.286;10.788;2023-04-08T01:16:31;16.73;;;9.83;;
3337;SDS011;1682;49.286;10.788;2023-04-08T01:18:59;9.53;;;8.63;;
3337;SDS011;1682;49.286;10.788;2023-04-08T01:21:26;11.33;;;8.87;;
3337;SDS011;1682;49.286;10.788;2023-04-08T01:23:57;9.57;;;8.57;;
3337;SDS011;1682;49.286;10.788;2023-04-08T01:26:27;13.37;;;9.63;;
3337;SDS011;1682;49.286;10.788;2023-04-08T01:28:55;16.93;;;11.77;;
3337;SDS011;1682;49.286;10.788;2023-04-08T01:31:23;10.60;;;8.43;;
3337;SDS011;1682;49.286;10.788;2023-04-08T01:33:51;14.80;;;10.30;;
3337;SDS011;1682;49.286;10.788;2023-04-08T01:36:19;12.30;;;9.20;;
3337;SDS011;1682;49.286;10.788;2023-04-08T01:38:46;12.23;;;9.87;;
3337;SDS011;1682;49.286;10.788;2023-04-08T01:41:14;17.83;;;10.77;;
3337;SDS011;1682;49.286;10.788;2023-04-08T01:43:43;11.20;;;8.97;;
3337;SDS011;1682;49.286;10.788;2023-04-08T01:46:10;15.20;;;10.70;;
3337;SDS011;1682;49.286;10.788;2023-04-08T01:48:38;13.07;;;9.73;;
3337;SDS011;1682;49.286;10.788;2023-04-08T01:51:06;11.30;;;9.00;;
3337;SDS011;1682;49.286;10.788;2023-04-08T01:53:33;13.37;;;10.17;;
3337;SDS011;1682;49.286;10.788;2023-04-08T01:56:02;14.63;;;9.67;;
3337;SDS011;1682;49.286;10.788;2023-04-08T01:58:32;12.10;;;9.97;;
3337;SDS011;1682;49.286;10.788;2023-04-08T02:01:02;12.00;;;10.37;;
3337;SDS011;1682;49.286;10.788;2023-04-08T02:03:30;13.70;;;9.87;;
3337;SDS011;1682;49.286;10.788;2023-04-08T02:05:59;11.07;;;9.90;;
3337;SDS011;1682;49.286;10.788;2023-04-08T02:08:26;14.77;;;10.20;;
3337;SDS011;1682;49.286;10.788;2023-04-08T02:10:53;19.03;;;12.47;;
3337;SDS011;1682;49.286;10.788;2023-04-08T02:13:20;10.77;;;9.67;;
3337;SDS011;1682;49.286;10.788;2023-04-08T02:15:50;14.60;;;10.87;;
3337;SDS011;1682;49.286;10.788;2023-04-08T02:18:21;15.33;;;10.20;;
3337;SDS011;1682;49.286;10.788;2023-04-08T02:20:52;15.53;;;11.00;;
3337;SDS011;1682;49.286;10.788;2023-04-08T02:23:20;14.43;;;10.17;;
3337;SDS011;1682;49.286;10.788;2023-04-08T02:25:48;17.17;;;11.60;;
3337;SDS011;1682;49.286;10.788;2023-04-08T02:28:16;17.40;;;11.87;;
3337;SDS011;1682;49.286;10.788;2023-04-08T02:30:46;15.10;;;11.50;;
3337;SDS011;1682;49.286;10.788;2023-04-08T02:33:14;15.50;;;11.60;;
3337;SDS011;1682;49.286;10.788;2023-04-08T02:35:44;17.33;;;11.53;;
3337;SDS011;1682;49.286;10.788;2023-04-08T02:38:13;13.80;;;10.70;;
3337;SDS011;1682;49.286;10.788;2023-04-08T02:40:40;18.63;;;12.63;;
3337;SDS011;1682;49.286;10.788;2023-04-08T02:43:08;16.20;;;11.83;;
3337;SDS011;1682;49.286;10.788;2023-04-08T02:45:37;16.87;;;11.87;;
3337;SDS011;1682;49.286;10.788;2023-04-08T02:48:04;13.67;;;12.20;;
3337;SDS011;1682;49.286;10.788;2023-04-08T02:50:32;20.43;;;11.10;;
3337;SDS011;1682;49.286;10.788;2023-04-08T02:53:00;14.90;;;11.03;;
3337;SDS011;1682;49.286;10.788;2023-04-08T02:55:28;15.80;;;11.35;;
3337;SDS011;1682;49.286;10.788;2023-04-08T02:57:55;13.03;;;11.23;;
3337;SDS011;1682;49.286;10.788;2023-04-08T03:00:22;14.73;;;10.80;;
3337;SDS011;1682;49.286;10.788;2023-04-08T03:02:50;16.43;;;11.70;;
3337;SDS011;1682;49.286;10.788;2023-04-08T03:05:17;15.00;;;11.13;;
3337;SDS011;1682;49.286;10.788;2023-04-08T03:07:45;13.50;;;11.10;;
3337;SDS011;1682;49.286;10.788;2023-04-08T03:10:14;15.37;;;11.43;;
3337;SDS011;1682;49.286;10.788;2023-04-08T03:12:41;15.40;;;11.87;;
3337;SDS011;1682;49.286;10.788;2023-04-08T03:15:09;14.77;;;11.60;;
3337;SDS011;1682;49.286;10.788;2023-04-08T03:17:36;14.33;;;10.80;;
3337;SDS011;1682;49.286;10.788;2023-04-08T03:20:04;13.63;;;11.87;;
3337;SDS011;1682;49.286;10.788;2023-04-08T03:22:32;19.30;;;11.63;;
3337;SDS011;1682;49.286;10.788;2023-04-08T03:24:59;23.90;;;14.10;;
3337;SDS011;1682;49.286;10.788;2023-04-08T03:27:27;15.60;;;11.73;;
3337;SDS011;1682;49.286;10.788;2023-04-08T03:29:55;17.13;;;12.20;;
3337;SDS011;1682;49.286;10.788;2023-04-08T03:32:22;14.47;;;10.67;;
3337;SDS011;1682;49.286;10.788;2023-04-08T03:34:50;17.20;;;11.97;;
3337;SDS011;1682;49.286;10.788;2023-04-08T03:37:17;15.17;;;12.97;;
3337;SDS011;1682;49.286;10.788;2023-04-08T03:39:44;13.23;;;11.17;;
3337;SDS011;1682;49.286;10.788;2023-04-08T03:42:12;14.80;;;12.50;;
3337;SDS011;1682;49.286;10.788;2023-04-08T03:44:40;17.60;;;12.43;;
3337;SDS011;1682;49.286;10.788;2023-04-08T03:47:08;14.50;;;11.10;;
3337;SDS011;1682;49.286;10.788;2023-04-08T03:49:35;17.83;;;11.93;;
3337;SDS011;1682;49.286;10.788;2023-04-08T03:52:02;15.30;;;11.80;;
3337;SDS011;1682;49.286;10.788;2023-04-08T03:54:30;15.80;;;12.10;;
3337;SDS011;1682;49.286;10.788;2023-04-08T03:56:57;18.63;;;11.47;;
3337;SDS011;1682;49.286;10.788;2023-04-08T03:59:24;12.80;;;10.40;;
3337;SDS011;1682;49.286;10.788;2023-04-08T04:01:53;13.33;;;11.23;;
3337;SDS011;1682;49.286;10.788;2023-04-08T04:04:21;16.07;;;11.40;;
3337;SDS011;1682;49.286;10.788;2023-04-08T04:06:48;13.10;;;11.33;;
3337;SDS011;1682;49.286;10.788;2023-04-08T04:09:15;15.93;;;10.63;;
3337;SDS011;1682;49.286;10.788;2023-04-08T04:11:43;16.50;;;12.53;;
3337;SDS011;1682;49.286;10.788;2023-04-08T04:14:10;16.85;;;12.80;;
3337;SDS011;1682;49.286;10.788;2023-04-08T04:16:37;15.20;;;11.60;;
3337;SDS011;1682;49.286;10.788;2023-04-08T04:19:06;15.50;;;12.23;;
3337;SDS011;1682;49.286;10.788;2023-04-08T04:21:33;15.20;;;12.20;;
3337;SDS011;1682;49.286;10.788;2023-04-08T04:24:00;19.20;;;12.70;;
3337;SDS011;1682;49.286;10.788;2023-04-08T04:26:28;17.90;;;12.10;;
3337;SDS011;1682;49.286;10.788;2023-04-08T04:28:55;17.97;;;12.67;;
3337;SDS011;1682;49.286;10.788;2023-04-08T04:31:23;14.40;;;11.87;;
3337;SDS011;1682;49.286;10.788;2023-04-08T04:33:51;18.33;;;11.43;;
3337;SDS011;1682;49.286;10.788;2023-04-08T04:36:19;15.40;;;11.20;;
3337;SDS011;1682;49.286;10.788;2023-04-08T04:38:47;14.93;;;13.10;;
3337;SDS011;1682;49.286;10.788;2023-04-08T04:41:15;15.17;;;12.03;;
3337;SDS011;1682;49.286;10.788;2023-04-08T04:43:42;14.53;;;11.43;;
3337;SDS011;1682;49.286;10.788;2023-04-08T04:46:09;16.03;;;12.60;;
3337;SDS011;1682;49.286;10.788;2023-04-08T04:48:37;13.83;;;10.53;;
3337;SDS011;1682;49.286;10.788;2023-04-08T04:51:04;14.03;;;10.37;;
3337;SDS011;1682;49.286;10.788;2023-04-08T04:53:33;13.70;;;9.73;;
3337;SDS011;1682;49.286;10.788;2023-04-08T04:56:01;19.47;;;11.40;;
3337;SDS011;1682;49.286;10.788;2023-04-08T04:58:28;13.27;;;10.33;;
3337;SDS011;1682;49.286;10.788;2023-04-08T05:00:55;14.67;;;11.03;;
3337;SDS011;1682;49.286;10.788;2023-04-08T05:03:23;14.17;;;10.57;;
3337;SDS011;1682;49.286;10.788;2023-04-08T05:05:50;16.77;;;10.43;;
3337;SDS011;1682;49.286;10.788;2023-04-08T05:08:18;13.00;;;11.30;;
3337;SDS011;1682;49.286;10.788;2023-04-08T05:10:46;13.73;;;10.50;;
3337;SDS011;1682;49.286;10.788;2023-04-08T05:13:14;14.33;;;12.07;;
3337;SDS011;1682;49.286;10.788;2023-04-08T05:15:42;11.37;;;10.03;;
3337;SDS011;1682;49.286;10.788;2023-04-08T05:18:09;12.53;;;10.10;;
3337;SDS011;1682;49.286;10.788;2023-04-08T05:20:37;16.10;;;12.00;;
3337;SDS011;1682;49.286;10.788;2023-04-08T05:23:04;14.23;;;10.70;;
3337;SDS011;1682;49.286;10.788;2023-04-08T05:25:32;16.73;;;10.93;;
3337;SDS011;1682;49.286;10.788;2023-04-08T05:28:00;14.53;;;10.53;;
3337;SDS011;1682;49.286;10.788;2023-04-08T05:30:27;12.67;;;10.67;;
3337;SDS011;1682;49.286;10.788;2023-04-08T05:32:55;10.30;;;8.90;;
3337;SDS011;1682;49.286;10.788;2023-04-08T05:35:22;12.20;;;9.97;;
3337;SDS011;1682;49.286;10.788;2023-04-08T05:37:49;15.40;;;10.80;;
3337;SDS011;1682;49.286;10.788;2023-04-08T05:40:16;22.70;;;10.40;;
3337;SDS011;1682;49.286;10.788;2023-04-08T05:42:44;14.80;;;9.87;;
3337;SDS011;1682;49.286;10.788;2023-04-08T05:45:12;10.50;;;9.33;;
3337;SDS011;1682;49.286;10.788;2023-04-08T05:47:40;14.77;;;9.63;;
3337;SDS011;1682;49.286;10.788;2023-04-08T05:50:08;15.10;;;10.70;;
3337;SDS011;1682;49.286;10.788;2023-04-08T05:52:35;11.87;;;9.43;;
3337;SDS011;1682;49.286;10.788;2023-04-08T05:55:02;14.63;;;11.00;;
3337;SDS011;1682;49.286;10.788;2023-04-08T05:57:30;13.43;;;9.77;;
3337;SDS011;1682;49.286;10.788;2023-04-08T05:59:57;14.10;;;10.40;;
3337;SDS011;1682;49.286;10.788;2023-04-08T06:02:26;12.87;;;10.00;;
3337;SDS011;1682;49.286;10.788;2023-04-08T06:04:53;10.47;;;8.70;;
3337;SDS011;1682;49.286;10.788;2023-04-08T06:07:20;13.47;;;11.03;;
3337;SDS011;1682;49.286;10.788;2023-04-08T06:09:47;15.50;;;10.60;;
3337;SDS011;1682;49.286;10.788;2023-04-08T06:12:15;10.60;;;9.30;;
3337;SDS011;1682;49.286;10.788;2023-04-08T06:14:42;12.67;;;10.33;;
3337;SDS011;1682;49.286;10.788;2023-04-08T06:17:09;15.40;;;11.20;;
3337;SDS011;1682;49.286;10.788;2023-04-08T06:19:38;9.83;;;8.70;;
3337;SDS011;1682;49.286;10.788;2023-04-08T06:22:05;13.33;;;9.70;;
3337;SDS011;1682;49.286;10.788;2023-04-08T06:24:32;13.97;;;9.70;;
3337;SDS011;1682;49.286;10.788;2023-04-08T06:27:00;10.27;;;9.17;;
3337;SDS011;1682;49.286;10.788;2023-04-08T06:29:27;10.20;;;8.53;;
3337;SDS011;1682;49.286;10.788;2023-04-08T06:31:55;15.73;;;9.80;;
3337;SDS011;1682;49.286;10.788;2023-04-08T06:34:22;14.77;;;10.90;;
3337;SDS011;1682;49.286;10.788;2023-04-08T06:36:51;14.00;;;10.83;;
3337;SDS011;1682;49.286;10.788;2023-04-08T06:39:18;13.10;;;11.13;;
3337;SDS011;1682;49.286;10.788;2023-04-08T06:41:46;14.50;;;9.77;;
3337;SDS011;1682;49.286;10.788;2023-04-08T06:44:13;15.20;;;10.60;;
3337;SDS011;1682;49.286;10.788;2023-04-08T06:46:40;10.90;;;9.80;;
3337;SDS011;1682;49.286;10.788;2023-04-08T06:49:08;14.73;;;10.10;;
3337;SDS011;1682;49.286;10.788;2023-04-08T06:51:35;12.83;;;9.00;;
3337;SDS011;1682;49.286;10.788;2023-04-08T06:54:03;12.00;;;9.30;;
3337;SDS011;1682;49.286;10.788;2023-04-08T06:56:31;10.63;;;8.47;;
3337;SDS011;1682;49.286;10.788;2023-04-08T06:58:58;12.73;;;9.03;;
3337;SDS011;1682;49.286;10.788;2023-04-08T07:01:25;9.80;;;8.47;;
3337;SDS011;1682;49.286;10.788;2023-04-08T07:03:52;10.40;;;8.13;;
3337;SDS011;1682;49.286;10.788;2023-04-08T07:06:20;12.00;;;8.93;;
3337;SDS011;1682;49.286;10.788;2023-04-08T07:08:48;11.60;;;8.70;;
3337;SDS011;1682;49.286;10.788;2023-04-08T07:11:16;8.07;;;7.37;;
3337;SDS011;1682;49.286;10.788;2023-04-08T07:13:43;7.90;;;7.10;;
3337;SDS011;1682;49.286;10.788;2023-04-08T07:16:11;12.73;;;7.93;;
3337;SDS011;1682;49.286;10.788;2023-04-08T07:18:38;9.63;;;8.63;;
3337;SDS011;1682;49.286;10.788;2023-04-08T07:21:06;11.93;;;8.10;;
3337;SDS011;1682;49.286;10.788;2023-04-08T07:23:33;14.30;;;9.00;;
3337;SDS011;1682;49.286;10.788;2023-04-08T07:26:01;8.47;;;7.50;;
3337;SDS011;1682;49.286;10.788;2023-04-08T07:28:31;9.20;;;8.17;;
3337;SDS011;1682;49.286;10.788;2023-04-08T07:31:07;8.60;;;7.80;;
3337;SDS011;1682;49.286;10.788;2023-04-08T07:33:34;11.65;;;9.27;;
3337;SDS011;1682;49.286;10.788;2023-04-08T07:36:01;11.77;;;9.47;;
3337;SDS011;1682;49.286;10.788;2023-04-08T07:38:29;9.23;;;8.30;;
3337;SDS011;1682;49.286;10.788;2023-04-08T07:40:56;9.90;;;8.87;;
3337;SDS011;1682;49.286;10.788;2023-04-08T07:43:23;11.40;;;7.73;;
3337;SDS011;1682;49.286;10.788;2023-04-08T07:45:52;8.40;;;7.60;;
3337;SDS011;1682;49.286;10.788;2023-04-08T07:48:19;8.30;;;7.50;;
3337;SDS011;1682;49.286;10.788;2023-04-08T07:50:47;13.05;;;8.65;;
3337;SDS011;1682;49.286;10.788;2023-04-08T07:53:14;9.40;;;7.80;;
3337;SDS011;1682;49.286;10.788;2023-04-08T07:55:41;11.93;;;8.03;;
3337;SDS011;1682;49.286;10.788;2023-04-08T07:58:09;9.30;;;8.20;;
3337;SDS011;1682;49.286;10.788;2023-04-08T08:00:36;8.53;;;7.10;;
3337;SDS011;1682;49.286;10.788;2023-04-08T08:03:06;13.13;;;7.53;;
3337;SDS011;1682;49.286;10.788;2023-04-08T08:05:34;8.30;;;7.50;;
3337;SDS011;1682;49.286;10.788;2023-04-08T08:08:01;7.50;;;6.60;;
3337;SDS011;1682;49.286;10.788;2023-04-08T08:10:29;5.87;;;5.30;;
3337;SDS011;1682;49.286;10.788;2023-04-08T08:12:56;6.93;;;6.33;;
3337;SDS011;1682;49.286;10.788;2023-04-08T08:15:23;7.53;;;5.63;;
3337;SDS011;1682;49.286;10.788;2023-04-08T08:17:50;8.63;;;7.47;;
3337;SDS011;1682;49.286;10.788;2023-04-08T08:20:19;8.10;;;7.40;;
3337;SDS011;1682;49.286;10.788;2023-04-08T08:22:46;9.87;;;8.13;;
3337;SDS011;1682;49.286;10.788;2023-04-08T08:25:13;8.10;;;7.30;;
3337;SDS011;1682;49.286;10.788;2023-04-08T08:27:40;10.70;;;9.07;;
3337;SDS011;1682;49.286;10.788;2023-04-08T08:30:08;6.97;;;6.27;;
3337;SDS011;1682;49.286;10.788;2023-04-08T08:32:35;7.53;;;6.40;;
3337;SDS011;1682;49.286;10.788;2023-04-08T08:35:02;7.10;;;6.17;;
3337;SDS011;1682;49.286;10.788;2023-04-08T08:37:31;6.00;;;5.40;;
3337;SDS011;1682;49.286;10.788;2023-04-08T08:39:58;6.87;;;5.93;;
3337;SDS011;1682;49.286;10.788;2023-04-08T08:42:25;6.00;;;5.40;;
3337;SDS011;1682;49.286;10.788;2023-04-08T08:44:55;16.37;;;7.20;;
3337;SDS011;1682;49.286;10.788;2023-04-08T08:47:23;7.23;;;6.63;;
3337;SDS011;1682;49.286;10.788;2023-04-08T08:49:51;6.07;;;5.50;;
3337;SDS011;1682;49.286;10.788;2023-04-08T08:52:18;6.13;;;5.53;;
3337;SDS011;1682;49.286;10.788;2023-04-08T08:54:46;11.17;;;5.83;;
3337;SDS011;1682;49.286;10.788;2023-04-08T08:57:17;8.80;;;5.10;;
3337;SDS011;1682;49.286;10.788;2023-04-08T08:59:45;6.87;;;5.07;;
3337;SDS011;1682;49.286;10.788;2023-04-08T09:04:58;6.13;;;5.60;;
3337;SDS011;1682;49.286;10.788;2023-04-08T09:07:26;5.77;;;4.90;;
3337;SDS011;1682;49.286;10.788;2023-04-08T09:09:55;5.40;;;4.90;;
3337;SDS011;1682;49.286;10.788;2023-04-08T09:12:23;5.00;;;4.07;;
3337;SDS011;1682;49.286;10.788;2023-04-08T09:15:01;5.07;;;4.67;;
3337;SDS011;1682;49.286;10.788;2023-04-08T09:17:31;5.77;;;5.23;;
3337;SDS011;1682;49.286;10.788;2023-04-08T09:20:06;4.47;;;4.17;;
3337;SDS011;1682;49.286;10.788;2023-04-08T09:25:24;5.37;;;4.90;;
3337;SDS011;1682;49.286;10.788;2023-04-08T09:27:51;7.60;;;6.73;;
3337;SDS011;1682;49.286;10.788;2023-04-08T09:30:20;5.50;;;5.10;;
3337;SDS011;1682;49.286;10.788;2023-04-08T09:32:48;5.13;;;4.63;;
3337;SDS011;1682;49.286;10.788;2023-04-08T09:35:16;5.00;;;4.60;;
3337;SDS011;1682;49.286;10.788;2023-04-08T09:37:43;5.07;;;4.67;;
3337;SDS011;1682;49.286;10.788;2023-04-08T09:40:10;4.67;;;4.23;;
3337;SDS011;1682;49.286;10.788;2023-04-08T09:42:43;6.57;;;5.27;;
3337;SDS011;1682;49.286;10.788;2023-04-08T09:45:11;5.47;;;4.97;;
3337;SDS011;1682;49.286;10.788;2023-04-08T09:47:42;5.83;;;5.40;;
3337;SDS011;1682;49.286;10.788;2023-04-08T09:50:10;4.70;;;4.30;;
3337;SDS011;1682;49.286;10.788;2023-04-08T09:52:38;6.73;;;4.77;;
3337;SDS011;1682;49.286;10.788;2023-04-08T09:55:08;4.97;;;4.50;;
3337;SDS011;1682;49.286;10.788;2023-04-08T09:57:39;5.30;;;4.80;;
3337;SDS011;1682;49.286;10.788;2023-04-08T10:00:09;6.03;;;4.50;;
3337;SDS011;1682;49.286;10.788;2023-04-08T10:02:39;5.10;;;4.70;;
3337;SDS011;1682;49.286;10.788;2023-04-08T10:05:07;5.07;;;4.67;;
3337;SDS011;1682;49.286;10.788;2023-04-08T10:07:35;5.60;;;5.10;;
3337;SDS011;1682;49.286;10.788;2023-04-08T10:10:02;6.23;;;5.63;;
3337;SDS011;1682;49.286;10.788;2023-04-08T10:12:29;4.50;;;4.10;;
3337;SDS011;1682;49.286;10.788;2023-04-08T10:17:44;8.00;;;5.30;;
3337;SDS011;1682;49.286;10.788;2023-04-08T10:22:53;6.63;;;6.00;;
3337;SDS011;1682;49.286;10.788;2023-04-08T10:25:27;7.47;;;6.77;;
3337;SDS011;1682;49.286;10.788;2023-04-08T10:27:55;9.63;;;6.77;;
3337;SDS011;1682;49.286;10.788;2023-04-08T10:33:08;7.87;;;7.13;;
3337;SDS011;1682;49.286;10.788;2023-04-08T10:35:37;8.03;;;6.00;;
3337;SDS011;1682;49.286;10.788;2023-04-08T10:38:06;6.75;;;5.75;;
3337;SDS011;1682;49.286;10.788;2023-04-08T10:40:34;6.63;;;6.03;;
3337;SDS011;1682;49.286;10.788;2023-04-08T10:43:03;7.17;;;5.23;;
3337;SDS011;1682;49.286;10.788;2023-04-08T10:45:30;6.83;;;6.23;;
3337;SDS011;1682;49.286;10.788;2023-04-08T10:48:11;7.77;;;6.80;;
3337;SDS011;1682;49.286;10.788;2023-04-08T10:50:38;6.83;;;6.13;;
3337;SDS011;1682;49.286;10.788;2023-04-08T10:53:06;7.23;;;6.53;;
3337;SDS011;1682;49.286;10.788;2023-04-08T10:55:33;6.97;;;6.20;;
3337;SDS011;1682;49.286;10.788;2023-04-08T10:58:04;10.43;;;6.90;;
3337;SDS011;1682;49.286;10.788;2023-04-08T11:00:32;7.13;;;6.53;;
3337;SDS011;1682;49.286;10.788;2023-04-08T11:02:59;6.77;;;5.90;;
3337;SDS011;1682;49.286;10.788;2023-04-08T11:05:28;7.50;;;5.27;;
3337;SDS011;1682;49.286;10.788;2023-04-08T11:07:55;6.43;;;5.83;;
3337;SDS011;1682;49.286;10.788;2023-04-08T11:10:22;7.20;;;6.23;;
3337;SDS011;1682;49.286;10.788;2023-04-08T11:12:49;7.30;;;6.60;;
3337;SDS011;1682;49.286;10.788;2023-04-08T11:15:18;5.60;;;5.20;;
3337;SDS011;1682;49.286;10.788;2023-04-08T11:17:45;6.80;;;6.03;;
3337;SDS011;1682;49.286;10.788;2023-04-08T11:20:13;6.70;;;5.57;;
3337;SDS011;1682;49.286;10.788;2023-04-08T11:22:42;7.00;;;6.30;;
3337;SDS011;1682;49.286;10.788;2023-04-08T11:25:10;8.40;;;7.00;;
3337;SDS011;1682;49.286;10.788;2023-04-08T11:27:37;5.87;;;5.37;;
3337;SDS011;1682;49.286;10.788;2023-04-08T11:30:06;6.40;;;4.80;;
3337;SDS011;1682;49.286;10.788;2023-04-08T11:32:34;5.50;;;5.10;;
3337;SDS011;1682;49.286;10.788;2023-04-08T11:35:03;5.45;;;4.20;;
3337;SDS011;1682;49.286;10.788;2023-04-08T11:37:37;5.60;;;5.13;;
3337;SDS011;1682;49.286;10.788;2023-04-08T11:40:10;7.27;;;5.63;;
3337;SDS011;1682;49.286;10.788;2023-04-08T11:42:38;6.43;;;5.83;;
3337;SDS011;1682;49.286;10.788;2023-04-08T11:45:08;9.20;;;6.90;;
3337;SDS011;1682;49.286;10.788;2023-04-08T11:47:36;6.30;;;5.70;;
3337;SDS011;1682;49.286;10.788;2023-04-08T11:50:03;6.03;;;5.43;;
3337;SDS011;1682;49.286;10.788;2023-04-08T11:52:42;7.17;;;6.20;;
3337;SDS011;1682;49.286;10.788;2023-04-08T11:55:11;8.97;;;7.27;;
3337;SDS011;1682;49.286;10.788;2023-04-08T11:57:38;8.37;;;6.93;;
3337;SDS011;1682;49.286;10.788;2023-04-08T12:00:06;6.10;;;5.50;;
3337;SDS011;1682;49.286;10.788;2023-04-08T12:02:34;6.63;;;6.00;;
3337;SDS011;1682;49.286;10.788;2023-04-08T12:05:01;6.83;;;6.23;;
3337;SDS011;1682;49.286;10.788;2023-04-08T12:07:28;6.67;;;6.07;;
3337;SDS011;1682;49.286;10.788;2023-04-08T12:09:55;6.47;;;5.90;;
3337;SDS011;1682;49.286;10.788;2023-04-08T12:12:24;6.43;;;5.83;;
3337;SDS011;1682;49.286;10.788;2023-04-08T12:14:51;6.87;;;6.27;;
3337;SDS011;1682;49.286;10.788;2023-04-08T12:17:18;5.93;;;5.43;;
3337;SDS011;1682;49.286;10.788;2023-04-08T12:19:45;7.70;;;6.97;;
3337;SDS011;1682;49.286;10.788;2023-04-08T12:22:13;6.23;;;5.57;;
3337;SDS011;1682;49.286;10.788;2023-04-08T12:24:40;6.33;;;5.73;;
3337;SDS011;1682;49.286;10.788;2023-04-08T12:27:07;6.03;;;5.50;;
3337;SDS011;1682;49.286;10.788;2023-04-08T12:29:36;6.87;;;5.87;;
3337;SDS011;1682;49.286;10.788;2023-04-08T12:32:04;6.20;;;5.20;;
3337;SDS011;1682;49.286;10.788;2023-04-08T12:34:31;5.87;;;5.37;;
3337;SDS011;1682;49.286;10.788;2023-04-08T12:36:58;7.47;;;6.47;;
3337;SDS011;1682;49.286;10.788;2023-04-08T12:39:26;6.90;;;5.63;;
3337;SDS011;1682;49.286;10.788;2023-04-08T12:41:54;8.10;;;6.50;;
3337;SDS011;1682;49.286;10.788;2023-04-08T12:44:22;7.33;;;6.63;;
3337;SDS011;1682;49.286;10.788;2023-04-08T12:46:51;6.63;;;6.03;;
3337;SDS011;1682;49.286;10.788;2023-04-08T12:49:18;8.03;;;6.60;;
3337;SDS011;1682;49.286;10.788;2023-04-08T12:51:46;9.50;;;7.13;;
3337;SDS011;1682;49.286;10.788;2023-04-08T12:54:13;7.50;;;6.80;;
3337;SDS011;1682;49.286;10.788;2023-04-08T12:56:40;7.13;;;6.43;;
3337;SDS011;1682;49.286;10.788;2023-04-08T12:59:08;10.37;;;9.10;;
3337;SDS011;1682;49.286;10.788;2023-04-08T13:01:35;9.50;;;7.50;;
3337;SDS011;1682;49.286;10.788;2023-04-08T13:04:04;13.90;;;7.10;;
3337;SDS011;1682;49.286;10.788;2023-04-08T13:06:31;8.83;;;8.03;;
3337;SDS011;1682;49.286;10.788;2023-04-08T13:08:58;6.40;;;5.80;;
3337;SDS011;1682;49.286;10.788;2023-04-08T13:11:25;5.87;;;5.27;;
3337;SDS011;1682;49.286;10.788;2023-04-08T13:13:53;7.13;;;6.50;;
3337;SDS011;1682;49.286;10.788;2023-04-08T13:16:20;6.88;;;6.18;;
3337;SDS011;1682;49.286;10.788;2023-04-08T13:18:47;7.30;;;6.70;;
3337;SDS011;1682;49.286;10.788;2023-04-08T13:21:16;6.03;;;5.53;;
3337;SDS011;1682;49.286;10.788;2023-04-08T13:23:43;7.00;;;6.30;;
3337;SDS011;1682;49.286;10.788;2023-04-08T13:26:11;7.73;;;6.60;;
3337;SDS011;1682;49.286;10.788;2023-04-08T13:28:38;7.50;;;6.70;;
3337;SDS011;1682;49.286;10.788;2023-04-08T13:31:05;9.33;;;6.90;;
3337;SDS011;1682;49.286;10.788;2023-04-08T13:33:32;6.57;;;5.90;;
3337;SDS011;1682;49.286;10.788;2023-04-08T13:35:59;7.93;;;7.00;;
3337;SDS011;1682;49.286;10.788;2023-04-08T13:38:28;13.73;;;6.83;;
3337;SDS011;1682;49.286;10.788;2023-04-08T13:40:55;5.93;;;5.37;;
3337;SDS011;1682;49.286;10.788;2023-04-08T13:43:22;6.80;;;6.20;;
3337;SDS011;1682;49.286;10.788;2023-04-08T13:45:49;7.67;;;7.07;;
3337;SDS011;1682;49.286;10.788;2023-04-08T13:48:17;8.50;;;6.60;;
3337;SDS011;1682;49.286;10.788;2023-04-08T13:50:44;7.60;;;6.90;;
3337;SDS011;1682;49.286;10.788;2023-04-08T13:53:11;7.33;;;6.63;;
3337;SDS011;1682;49.286;10.788;2023-04-08T13:55:40;6.80;;;6.23;;
3337;SDS011;1682;49.286;10.788;2023-04-08T13:58:07;11.10;;;7.67;;
3337;SDS011;1682;49.286;10.788;2023-04-08T14:00:34;7.10;;;6.10;;
3337;SDS011;1682;49.286;10.788;2023-04-08T14:03:02;8.00;;;7.20;;
3337;SDS011;1682;49.286;10.788;2023-04-08T14:05:29;6.20;;;5.70;;
3337;SDS011;1682;49.286;10.788;2023-04-08T14:07:57;6.10;;;5.53;;
3337;SDS011;1682;49.286;10.788;2023-04-08T14:10:24;5.73;;;5.20;;
3337;SDS011;1682;49.286;10.788;2023-04-08T14:12:52;8.33;;;5.87;;
3337;SDS011;1682;49.286;10.788;2023-04-08T14:15:20;7.70;;;5.80;;
3337;SDS011;1682;49.286;10.788;2023-04-08T14:17:47;6.63;;;5.70;;
3337;SDS011;1682;49.286;10.788;2023-04-08T14:20:14;6.30;;;5.70;;
3337;SDS011;1682;49.286;10.788;2023-04-08T14:22:41;5.43;;;4.93;;
3337;SDS011;1682;49.286;10.788;2023-04-08T14:25:08;6.83;;;6.23;;
3337;SDS011;1682;49.286;10.788;2023-04-08T14:27:36;6.50;;;5.90;;
3337;SDS011;1682;49.286;10.788;2023-04-08T14:30:05;9.53;;;5.97;;
3337;SDS011;1682;49.286;10.788;2023-04-08T14:32:32;5.93;;;5.43;;
3337;SDS011;1682;49.286;10.788;2023-04-08T14:35:00;6.10;;;5.60;;
3337;SDS011;1682;49.286;10.788;2023-04-08T14:37:27;8.27;;;6.47;;
3337;SDS011;1682;49.286;10.788;2023-04-08T14:39:55;5.03;;;4.63;;
3337;SDS011;1682;49.286;10.788;2023-04-08T14:42:22;6.57;;;5.77;;
3337;SDS011;1682;49.286;10.788;2023-04-08T14:44:49;7.10;;;5.83;;
3337;SDS011;1682;49.286;10.788;2023-04-08T14:47:18;7.27;;;6.53;;
3337;SDS011;1682;49.286;10.788;2023-04-08T14:49:45;6.90;;;6.30;;
3337;SDS011;1682;49.286;10.788;2023-04-08T14:52:12;6.03;;;5.43;;
3337;SDS011;1682;49.286;10.788;2023-04-08T14:54:39;6.40;;;5.20;;
3337;SDS011;1682;49.286;10.788;2023-04-08T14:57:09;6.93;;;5.97;;
3337;SDS011;1682;49.286;10.788;2023-04-08T14:59:36;7.90;;;7.10;;
3337;SDS011;1682;49.286;10.788;2023-04-08T15:02:03;8.77;;;6.70;;
3337;SDS011;1682;49.286;10.788;2023-04-08T15:04:32;7.33;;;6.70;;
3337;SDS011;1682;49.286;10.788;2023-04-08T15:06:59;8.77;;;7.97;;
3337;SDS011;1682;49.286;10.788;2023-04-08T15:09:27;7.23;;;6.63;;